createdAt,value
2022-12-18T00:01:22.983Z,145.90
2022-12-18T00:03:50.265Z,138.80
2022-12-18T00:06:19.692Z,137.10
2022-12-18T00:08:47.088Z,125.60
2022-12-18T00:11:16.684Z,127.50
2022-12-18T00:13:44.032Z,133.90
2022-12-18T00:16:14.201Z,139.30
2022-12-18T00:18:41.510Z,126.20
2022-12-18T00:21:10.911Z,125.50
2022-12-18T00:23:38.994Z,130.60
2022-12-18T00:26:27.477Z,130.70
2022-12-18T00:28:55.028Z,114.70
2022-12-18T00:31:24.878Z,132.70
2022-12-18T00:33:55.188Z,130.00
2022-12-18T00:36:30.417Z,108.40
2022-12-18T00:39:00.429Z,127.40
2022-12-18T00:41:27.990Z,135.20
2022-12-18T00:43:54.391Z,134.90
2022-12-18T00:46:20.889Z,136.70
2022-12-18T00:48:47.405Z,140.50
2022-12-18T00:51:13.816Z,136.70
2022-12-18T00:53:40.726Z,118.60
2022-12-18T00:56:07.618Z,127.10
2022-12-18T00:58:37.077Z,130.70
2022-12-18T01:01:05.941Z,128.80
2022-12-18T01:03:32.598Z,132.30
2022-12-18T01:05:59.233Z,132.30
2022-12-18T01:08:25.842Z,123.90
2022-12-18T01:10:52.410Z,125.70
2022-12-18T01:13:18.830Z,117.10
2022-12-18T01:15:50.533Z,125.30
2022-12-18T01:18:17.435Z,120.70
2022-12-18T01:20:44.027Z,125.00
2022-12-18T01:23:10.651Z,114.20
2022-12-18T01:25:37.596Z,120.70
2022-12-18T01:28:04.342Z,113.90
2022-12-18T01:30:30.808Z,112.50
2022-12-18T01:32:57.218Z,110.50
2022-12-18T01:35:23.751Z,109.60
2022-12-18T01:37:50.293Z,119.30
2022-12-18T01:40:16.941Z,110.30
2022-12-18T01:42:43.474Z,114.10
2022-12-18T01:45:12.604Z,110.80
2022-12-18T01:47:40.622Z,113.30
2022-12-18T01:50:24.769Z,104.80
2022-12-18T01:52:54.871Z,109.50
2022-12-18T01:55:25.827Z,105.40
2022-12-18T01:57:58.639Z,102.30
2022-12-18T02:00:26.691Z,105.90
2022-12-18T02:02:54.640Z,110.60
2022-12-18T02:05:38.053Z,109.00
2022-12-18T02:08:11.737Z,115.50
2022-12-18T02:11:03.175Z,100.20
2022-12-18T02:13:33.677Z,100.70
2022-12-18T02:16:18.450Z,102.10
2022-12-18T02:18:51.351Z,102.20
2022-12-18T02:21:45.968Z,103.80
2022-12-18T02:24:36.234Z,99.20
2022-12-18T02:27:06.918Z,103.90
2022-12-18T02:29:57.931Z,103.40
2022-12-18T02:34:59.386Z,100.40
2022-12-18T02:37:28.982Z,88.00
2022-12-18T02:39:58.052Z,86.40
2022-12-18T02:42:25.273Z,88.20
2022-12-18T02:44:52.833Z,94.60
2022-12-18T02:47:23.471Z,87.30
2022-12-18T02:50:06.396Z,97.60
2022-12-18T02:53:05.654Z,109.70
2022-12-18T02:55:55.602Z,94.60
2022-12-18T02:58:34.015Z,87.00
2022-12-18T03:01:11.137Z,91.30
2022-12-18T03:04:04.576Z,86.90
2022-12-18T03:06:36.851Z,88.20
2022-12-18T03:09:09.960Z,79.00
2022-12-18T03:11:42.191Z,79.40
2022-12-18T03:14:09.915Z,76.50
2022-12-18T03:16:37.161Z,80.00
2022-12-18T03:19:09.630Z,82.80
2022-12-18T03:21:46.787Z,74.00
2022-12-18T03:24:13.433Z,79.50
2022-12-18T03:26:45.921Z,75.60
2022-12-18T03:29:57.173Z,77.20
2022-12-18T03:32:39.768Z,69.40
2022-12-18T03:35:08.183Z,61.80
2022-12-18T03:37:36.029Z,69.00
2022-12-18T03:40:03.660Z,61.50
2022-12-18T03:42:38.935Z,62.60
2022-12-18T03:45:14.656Z,66.00
2022-12-18T03:47:54.829Z,61.70
2022-12-18T03:50:44.484Z,58.90
2022-12-18T03:53:43.641Z,77.60
2022-12-18T03:56:12.413Z,77.60
2022-12-18T03:58:42.854Z,67.30
2022-12-18T04:01:12.902Z,72.10
2022-12-18T04:03:42.480Z,68.00
2022-12-18T04:06:11.048Z,70.60
2022-12-18T04:08:37.950Z,74.40
2022-12-18T04:11:04.557Z,76.40
2022-12-18T04:13:39.795Z,71.90
2022-12-18T04:16:07.215Z,66.00
2022-12-18T04:18:33.782Z,70.60
2022-12-18T04:21:00.422Z,75.00
2022-12-18T04:23:27.003Z,65.30
2022-12-18T04:25:53.479Z,73.00
2022-12-18T04:28:19.995Z,70.90
2022-12-18T04:30:49.834Z,77.10
2022-12-18T04:33:19.624Z,95.20
2022-12-18T04:35:46.119Z,77.40
2022-12-18T04:38:12.649Z,69.40
2022-12-18T04:40:39.786Z,71.20
2022-12-18T04:43:08.318Z,81.50
2022-12-18T04:45:35.136Z,77.20
2022-12-18T04:48:03.394Z,68.20
2022-12-18T04:50:30.883Z,73.60
2022-12-18T04:52:57.913Z,69.50
2022-12-18T04:55:28.360Z,66.30
2022-12-18T04:57:54.905Z,69.80
2022-12-18T05:00:21.928Z,61.20
2022-12-18T05:02:48.765Z,60.80
2022-12-18T05:05:15.535Z,73.40
2022-12-18T05:07:42.076Z,65.40
2022-12-18T05:10:09.421Z,71.30
2022-12-18T05:12:36.999Z,67.20
2022-12-18T05:15:07.233Z,57.60
2022-12-18T05:17:33.650Z,65.20
2022-12-18T05:20:00.199Z,71.90
2022-12-18T05:22:26.748Z,74.00
2022-12-18T05:24:53.279Z,70.60
2022-12-18T05:27:19.814Z,71.80
2022-12-18T05:29:46.403Z,65.40
2022-12-18T05:32:12.907Z,67.80
2022-12-18T05:34:39.442Z,67.10
2022-12-18T05:37:06.290Z,73.00
2022-12-18T05:39:36.252Z,75.70
2022-12-18T05:42:02.799Z,62.60
2022-12-18T05:44:29.297Z,57.30
2022-12-18T05:46:55.989Z,68.40
2022-12-18T05:49:22.590Z,68.50
2022-12-18T05:51:49.008Z,73.30
2022-12-18T05:54:15.462Z,71.50
2022-12-18T05:56:47.019Z,69.10
2022-12-18T05:59:14.973Z,72.30
2022-12-18T06:01:41.765Z,72.70
2022-12-18T06:04:08.723Z,70.00
2022-12-18T06:06:35.437Z,67.70
2022-12-18T06:09:02.242Z,63.40
2022-12-18T06:11:28.880Z,66.40
2022-12-18T06:13:59.156Z,69.80
2022-12-18T06:16:26.970Z,65.90
2022-12-18T06:18:53.674Z,68.80
2022-12-18T06:21:20.207Z,68.00
2022-12-18T06:23:46.633Z,60.80
2022-12-18T06:26:14.131Z,67.40
2022-12-18T06:28:41.253Z,84.30
2022-12-18T06:31:09.585Z,87.30
2022-12-18T06:33:37.480Z,106.40
2022-12-18T06:36:10.413Z,104.70
2022-12-18T06:38:39.183Z,108.10
2022-12-18T06:41:13.986Z,123.60
2022-12-18T06:43:40.931Z,173.60
2022-12-18T06:46:08.333Z,152.20
2022-12-18T06:48:35.507Z,144.40
2022-12-18T06:51:02.745Z,126.10
2022-12-18T06:53:29.931Z,120.90
2022-12-18T06:56:10.226Z,123.30
2022-12-18T06:58:37.516Z,114.00
2022-12-18T07:01:06.010Z,116.40
2022-12-18T07:03:33.269Z,109.50
2022-12-18T07:05:59.664Z,114.80
2022-12-18T07:08:26.592Z,109.40
2022-12-18T07:10:56.276Z,102.20
2022-12-18T07:13:23.599Z,97.60
2022-12-18T07:15:50.372Z,116.60
2022-12-18T07:18:16.911Z,112.50
2022-12-18T07:20:43.456Z,118.90
2022-12-18T07:23:09.888Z,113.20
2022-12-18T07:25:37.762Z,126.30
2022-12-18T07:28:04.887Z,155.60
2022-12-18T07:30:31.565Z,135.70
2022-12-18T07:32:58.095Z,113.40
2022-12-18T07:35:25.353Z,119.70
2022-12-18T07:37:52.308Z,138.60
2022-12-18T07:40:18.847Z,108.10
2022-12-18T07:42:45.270Z,108.90
2022-12-18T07:45:11.760Z,108.40
2022-12-18T07:47:38.296Z,114.90
2022-12-18T07:50:06.328Z,110.30
2022-12-18T07:52:32.782Z,109.20
2022-12-18T07:54:59.938Z,107.70
2022-12-18T07:57:49.534Z,107.00
2022-12-18T08:00:13.753Z,112.60
2022-12-18T08:02:40.308Z,116.00
2022-12-18T08:05:09.234Z,106.50
2022-12-18T08:07:35.687Z,122.40
2022-12-18T08:10:02.114Z,107.50
2022-12-18T08:12:28.547Z,114.10
2022-12-18T08:14:54.994Z,108.50
2022-12-18T08:17:21.405Z,115.70
2022-12-18T08:19:47.963Z,112.40
2022-12-18T08:22:14.436Z,117.10
2022-12-18T08:24:41.043Z,122.60
2022-12-18T08:27:28.405Z,121.50
2022-12-18T08:29:54.093Z,115.20
2022-12-18T08:32:20.632Z,115.40
2022-12-18T08:34:47.031Z,104.90
2022-12-18T08:37:13.467Z,110.40
2022-12-18T08:39:39.947Z,97.30
2022-12-18T08:42:10.009Z,103.50
2022-12-18T08:44:37.119Z,105.00
2022-12-18T08:47:03.865Z,101.80
2022-12-18T08:49:30.375Z,93.60
2022-12-18T08:51:57.654Z,85.90
2022-12-18T08:54:25.375Z,90.00
2022-12-18T08:56:52.056Z,94.50
2022-12-18T08:59:20.018Z,93.40
2022-12-18T09:01:47.957Z,110.40
2022-12-18T09:04:14.727Z,87.20
2022-12-18T09:06:41.469Z,88.70
2022-12-18T09:09:08.036Z,83.80
2022-12-18T09:11:34.693Z,85.00
2022-12-18T09:14:02.654Z,90.10
2022-12-18T09:16:32.260Z,88.10
2022-12-18T09:19:00.319Z,84.00
2022-12-18T09:21:29.677Z,95.20
2022-12-18T09:23:56.987Z,83.10
2022-12-18T09:26:24.955Z,82.30
2022-12-18T09:28:51.644Z,91.50
2022-12-18T09:31:20.946Z,79.60
2022-12-18T09:33:48.180Z,82.10
2022-12-18T09:36:17.996Z,89.70
2022-12-18T09:38:44.889Z,87.30
2022-12-18T09:41:40.773Z,95.50
2022-12-18T09:44:10.320Z,86.60
2022-12-18T09:46:43.897Z,87.60
2022-12-18T09:49:18.718Z,110.40
2022-12-18T09:51:57.139Z,93.40
2022-12-18T09:54:56.033Z,96.50
2022-12-18T09:57:25.229Z,97.20
2022-12-18T10:00:00.064Z,111.00
2022-12-18T10:02:31.106Z,86.50
2022-12-18T10:05:15.087Z,100.50
2022-12-18T10:07:53.884Z,95.00
2022-12-18T10:10:32.399Z,84.90
2022-12-18T10:13:16.772Z,95.70
2022-12-18T10:15:55.871Z,108.00
2022-12-18T10:18:29.757Z,88.00
2022-12-18T10:21:04.860Z,96.60
2022-12-18T10:24:00.889Z,85.80
2022-12-18T10:26:27.434Z,97.00
2022-12-18T10:28:55.432Z,88.70
2022-12-18T10:31:24.713Z,82.00
2022-12-18T10:33:52.462Z,79.90
2022-12-18T10:36:19.163Z,67.00
2022-12-18T10:38:45.769Z,72.40
2022-12-18T10:41:26.895Z,66.40
2022-12-18T10:44:23.521Z,71.60
2022-12-18T10:47:10.136Z,66.20
2022-12-18T10:49:49.045Z,73.20
2022-12-18T10:52:19.758Z,58.50
2022-12-18T10:54:55.937Z,54.60
2022-12-18T10:57:36.406Z,50.70
2022-12-18T11:00:28.734Z,53.30
2022-12-18T11:02:56.448Z,51.70
2022-12-18T11:05:26.994Z,49.60
2022-12-18T11:07:56.543Z,44.90
2022-12-18T11:10:29.242Z,38.10
2022-12-18T11:12:56.512Z,39.00
2022-12-18T11:15:28.811Z,39.00
2022-12-18T11:17:55.332Z,39.90
2022-12-18T11:20:28.961Z,46.30
2022-12-18T11:22:58.424Z,43.30
2022-12-18T11:25:35.027Z,38.90
2022-12-18T11:28:04.979Z,35.50
2022-12-18T11:30:37.401Z,38.00
2022-12-18T11:33:11.438Z,38.70
2022-12-18T11:35:52.606Z,34.90
2022-12-18T11:38:25.747Z,33.50
2022-12-18T11:41:01.492Z,30.50
2022-12-18T11:43:39.301Z,32.40
2022-12-18T11:46:19.409Z,34.00
2022-12-18T11:48:58.899Z,37.80
2022-12-18T11:51:35.960Z,39.70
2022-12-18T11:54:09.406Z,35.90
2022-12-18T11:57:03.031Z,39.10
2022-12-18T12:00:12.213Z,31.60
2022-12-18T12:02:49.300Z,39.20
2022-12-18T12:05:34.496Z,40.90
2022-12-18T12:08:21.193Z,40.60
2022-12-18T12:10:56.705Z,37.00
2022-12-18T12:13:49.969Z,33.10
2022-12-18T12:16:47.771Z,34.20
2022-12-18T12:19:37.474Z,38.90
2022-12-18T12:22:22.521Z,38.60
2022-12-18T12:25:30.104Z,35.10
2022-12-18T12:28:14.872Z,38.30
2022-12-18T12:31:02.703Z,40.00
2022-12-18T12:33:38.312Z,38.00
2022-12-18T12:36:21.179Z,41.60
2022-12-18T12:38:53.050Z,40.70
2022-12-18T12:41:25.019Z,41.00
2022-12-18T12:43:51.883Z,41.20
2022-12-18T12:46:22.850Z,50.10
2022-12-18T12:48:53.015Z,38.60
2022-12-18T12:51:30.028Z,42.60
2022-12-18T12:53:59.020Z,41.80
2022-12-18T12:56:39.189Z,44.80
2022-12-18T12:59:26.466Z,43.40
2022-12-18T13:02:24.020Z,39.10
2022-12-18T13:05:15.792Z,33.30
2022-12-18T13:07:51.149Z,36.70
2022-12-18T13:10:19.185Z,40.60
2022-12-18T13:13:16.473Z,39.20
2022-12-18T13:15:48.234Z,33.60
2022-12-18T13:18:18.617Z,38.00
2022-12-18T13:20:55.172Z,36.60
2022-12-18T13:23:25.055Z,39.80
2022-12-18T13:25:53.621Z,41.00
2022-12-18T13:28:48.310Z,39.30
2022-12-18T13:31:50.076Z,43.20
2022-12-18T13:34:29.331Z,43.40
2022-12-18T13:37:17.701Z,38.60
2022-12-18T13:39:44.540Z,41.80
2022-12-18T13:42:11.290Z,46.50
2022-12-18T13:44:42.228Z,45.40
2022-12-18T13:47:28.751Z,38.00
2022-12-18T13:49:56.021Z,46.70
2022-12-18T13:52:26.607Z,44.50
2022-12-18T13:54:59.477Z,47.40
2022-12-18T13:57:25.865Z,47.00
2022-12-18T13:59:52.381Z,51.70
2022-12-18T14:02:24.238Z,59.30
2022-12-18T14:04:52.253Z,55.90
2022-12-18T14:07:23.695Z,53.50
2022-12-18T14:10:06.486Z,47.80
2022-12-18T14:12:49.545Z,47.80
2022-12-18T14:15:26.297Z,47.00
2022-12-18T14:17:56.064Z,62.20
2022-12-18T14:20:23.723Z,57.40
2022-12-18T14:22:50.451Z,49.30
2022-12-18T14:25:20.850Z,55.10
2022-12-18T14:27:52.162Z,59.10
2022-12-18T14:30:25.069Z,60.40
2022-12-18T14:33:11.843Z,52.40
2022-12-18T14:36:00.195Z,53.90
2022-12-18T14:38:29.687Z,56.20
2022-12-18T14:41:07.307Z,53.90
2022-12-18T14:43:39.769Z,58.20
2022-12-18T14:46:27.483Z,52.10
2022-12-18T14:48:54.895Z,61.00
2022-12-18T14:51:32.920Z,59.50
2022-12-18T14:54:02.030Z,66.10
2022-12-18T14:56:36.614Z,63.50
2022-12-18T14:59:04.690Z,66.00
2022-12-18T15:01:40.451Z,68.30
2022-12-18T15:04:26.408Z,71.10
2022-12-18T15:07:09.884Z,65.90
2022-12-18T15:09:36.933Z,65.20
2022-12-18T15:12:04.164Z,57.60
2022-12-18T15:14:41.689Z,80.60
2022-12-18T15:17:24.129Z,64.20
2022-12-18T15:19:59.651Z,72.80
2022-12-18T15:22:29.491Z,90.20
2022-12-18T15:24:58.161Z,111.90
2022-12-18T15:27:47.990Z,107.70
2022-12-18T15:30:20.715Z,111.40
2022-12-18T15:32:48.524Z,189.90
2022-12-18T15:35:19.137Z,182.90
2022-12-18T15:37:46.178Z,186.80
2022-12-18T15:40:15.542Z,172.50
2022-12-18T15:42:44.784Z,192.60
2022-12-18T15:45:14.085Z,206.60
2022-12-18T15:47:41.450Z,223.30
2022-12-18T15:50:08.931Z,249.50
2022-12-18T15:52:47.408Z,252.40
2022-12-18T15:55:18.352Z,229.90
2022-12-18T15:57:44.913Z,264.50
2022-12-18T16:00:13.448Z,262.30
2022-12-18T16:02:40.099Z,263.70
2022-12-18T16:05:16.094Z,280.00
2022-12-18T16:07:42.532Z,278.10
2022-12-18T16:10:09.660Z,254.70
2022-12-18T16:12:36.890Z,214.80
2022-12-18T16:15:05.088Z,204.90
2022-12-18T16:17:32.788Z,204.50
2022-12-18T16:20:06.132Z,220.80
2022-12-18T16:22:32.557Z,235.60
2022-12-18T16:24:59.075Z,214.60
2022-12-18T16:27:26.231Z,222.90
2022-12-18T16:29:53.068Z,214.00
2022-12-18T16:32:21.856Z,218.70
2022-12-18T16:34:49.011Z,209.00
2022-12-18T16:37:16.774Z,197.90
2022-12-18T16:39:44.347Z,214.60
2022-12-18T16:42:14.513Z,200.60
2022-12-18T16:44:41.921Z,212.90
2022-12-18T16:47:09.227Z,204.90
2022-12-18T16:49:38.175Z,216.70
2022-12-18T16:52:07.910Z,204.70
2022-12-18T16:54:34.535Z,187.40
2022-12-18T16:57:01.068Z,221.00
2022-12-18T16:59:27.502Z,210.70
2022-12-18T17:01:55.195Z,194.50
2022-12-18T17:04:21.811Z,282.10
2022-12-18T17:06:48.222Z,441.50
2022-12-18T17:09:15.839Z,458.10
2022-12-18T17:11:43.535Z,384.50
2022-12-18T17:14:14.530Z,357.00
2022-12-18T17:16:41.054Z,360.90
2022-12-18T17:19:10.981Z,409.50
2022-12-18T17:21:42.014Z,345.10
2022-12-18T17:24:09.067Z,388.30
2022-12-18T17:26:35.578Z,422.60
2022-12-18T17:29:02.085Z,354.60
2022-12-18T17:31:30.154Z,360.50
2022-12-18T17:33:57.471Z,305.40
2022-12-18T17:36:24.526Z,325.10
2022-12-18T17:38:56.085Z,367.50
2022-12-18T17:43:57.761Z,633.70
2022-12-18T17:46:25.695Z,890.30
2022-12-18T17:48:55.020Z,732.20
2022-12-18T17:51:21.579Z,982.60
2022-12-18T17:53:48.401Z,635.30
2022-12-18T17:56:17.122Z,552.90
2022-12-18T17:58:43.967Z,573.20
2022-12-18T18:01:14.011Z,509.50
2022-12-18T18:03:44.025Z,503.00
2022-12-18T18:06:11.277Z,486.50
2022-12-18T18:08:37.804Z,425.00
2022-12-18T18:11:06.698Z,417.30
2022-12-18T18:13:37.847Z,444.90
2022-12-18T18:16:07.397Z,338.80
2022-12-18T18:18:34.098Z,366.40
2022-12-18T18:21:05.548Z,344.30
2022-12-18T18:23:33.672Z,346.10
2022-12-18T18:26:08.046Z,326.80
2022-12-18T18:28:36.220Z,336.20
2022-12-18T18:31:07.572Z,343.80
2022-12-18T18:33:34.314Z,382.90
2022-12-18T18:36:01.088Z,400.30
2022-12-18T18:38:28.077Z,485.10
2022-12-18T18:40:59.363Z,411.60
2022-12-18T18:43:25.833Z,419.10
2022-12-18T18:46:00.150Z,386.60
2022-12-18T18:48:27.572Z,347.40
2022-12-18T18:50:57.719Z,593.40
2022-12-18T18:53:24.492Z,515.50
2022-12-18T18:56:10.239Z,521.60
2022-12-18T18:58:40.433Z,566.00
2022-12-18T19:01:11.300Z,546.50
2022-12-18T19:03:38.686Z,536.30
2022-12-18T19:06:07.557Z,563.90
2022-12-18T19:08:37.217Z,555.80
2022-12-18T19:11:06.087Z,600.50
2022-12-18T19:13:33.908Z,627.70
2022-12-18T19:16:08.984Z,547.80
2022-12-18T19:18:35.871Z,535.70
2022-12-18T19:21:05.068Z,611.50
2022-12-18T19:23:33.158Z,627.80
2022-12-18T19:26:17.062Z,547.30
2022-12-18T19:28:48.093Z,569.60
2022-12-18T19:31:20.056Z,587.30
2022-12-18T19:33:51.207Z,560.90
2022-12-18T19:36:32.314Z,544.70
2022-12-18T19:39:01.693Z,551.30
2022-12-18T19:41:32.859Z,573.00
2022-12-18T19:44:02.245Z,542.50
2022-12-18T19:46:36.038Z,485.70
2022-12-18T19:49:04.845Z,536.90
2022-12-18T19:51:32.615Z,488.90
2022-12-18T19:54:01.892Z,519.30
2022-12-18T19:56:32.222Z,527.80
2022-12-18T19:58:58.879Z,589.70
2022-12-18T20:01:27.346Z,558.70
2022-12-18T20:03:55.296Z,517.00
2022-12-18T20:06:35.092Z,496.60
2022-12-18T20:09:04.803Z,495.20
2022-12-18T20:11:33.084Z,475.20
2022-12-18T20:13:59.624Z,478.50
2022-12-18T20:16:26.526Z,484.50
2022-12-18T20:18:53.374Z,507.70
2022-12-18T20:21:20.418Z,527.40
2022-12-18T20:23:47.070Z,533.30
2022-12-18T20:26:15.602Z,514.80
2022-12-18T20:28:42.312Z,519.80
2022-12-18T20:31:10.391Z,510.20
2022-12-18T20:33:37.428Z,614.70
2022-12-18T20:36:10.430Z,485.50
2022-12-18T20:38:37.207Z,425.10
2022-12-18T20:41:07.519Z,359.80
2022-12-18T20:43:34.027Z,402.20
2022-12-18T20:46:06.072Z,398.60
2022-12-18T20:48:33.178Z,430.90
2022-12-18T20:51:02.130Z,408.00
2022-12-18T20:53:30.979Z,514.50
2022-12-18T20:55:57.440Z,445.70
2022-12-18T20:58:24.886Z,462.10
2022-12-18T21:01:03.780Z,436.20
2022-12-18T21:03:30.376Z,438.60
2022-12-18T21:05:56.893Z,485.80
2022-12-18T21:08:23.435Z,498.60
2022-12-18T21:10:49.966Z,478.50
2022-12-18T21:13:16.539Z,461.60
2022-12-18T21:15:44.313Z,454.50
2022-12-18T21:18:10.954Z,429.40
2022-12-18T21:20:37.438Z,436.80
2022-12-18T21:23:15.640Z,426.10
2022-12-18T21:25:44.368Z,444.50
2022-12-18T21:28:12.132Z,464.10
2022-12-18T21:30:38.819Z,486.50
2022-12-18T21:33:05.354Z,469.70
2022-12-18T21:35:32.118Z,522.10
2022-12-18T21:37:58.815Z,477.90
2022-12-18T21:40:25.315Z,466.60
2022-12-18T21:42:51.882Z,486.30
2022-12-18T21:45:18.434Z,500.90
2022-12-18T21:47:44.956Z,462.80
2022-12-18T21:50:11.396Z,444.70
2022-12-18T21:52:37.933Z,451.70
2022-12-18T21:55:09.412Z,440.60
2022-12-18T21:57:38.405Z,421.40
2022-12-18T22:00:06.300Z,426.30
2022-12-18T22:02:32.877Z,447.50
2022-12-18T22:04:59.439Z,433.30
2022-12-18T22:07:25.917Z,439.50
2022-12-18T22:09:52.406Z,435.10
2022-12-18T22:12:18.947Z,420.60
2022-12-18T22:14:45.369Z,483.70
2022-12-18T22:17:11.825Z,422.00
2022-12-18T22:19:43.118Z,405.20
2022-12-18T22:22:10.130Z,362.10
2022-12-18T22:24:36.575Z,363.20
2022-12-18T22:27:03.161Z,368.90
2022-12-18T22:29:29.962Z,372.00
2022-12-18T22:31:58.091Z,393.20
2022-12-18T22:34:24.576Z,436.10
2022-12-18T22:36:51.214Z,440.80
2022-12-18T22:39:26.637Z,466.50
2022-12-18T22:41:55.557Z,448.10
2022-12-18T22:44:22.025Z,442.80
2022-12-18T22:46:56.234Z,426.10
2022-12-18T22:49:32.336Z,403.90
2022-12-18T22:52:00.470Z,383.70
2022-12-18T22:54:27.000Z,378.70
2022-12-18T22:56:53.544Z,361.90
2022-12-18T22:59:23.535Z,358.60
2022-12-18T23:01:51.423Z,372.00
2022-12-18T23:04:26.782Z,368.80
2022-12-18T23:06:54.855Z,368.70
2022-12-18T23:09:21.496Z,342.90
2022-12-18T23:11:48.034Z,322.80
2022-12-18T23:14:14.518Z,318.40
2022-12-18T23:16:42.007Z,330.00
2022-12-18T23:19:10.369Z,326.30
2022-12-18T23:21:37.427Z,332.60
2022-12-18T23:24:04.626Z,313.50
2022-12-18T23:26:31.377Z,304.50
2022-12-18T23:28:57.864Z,307.50
2022-12-18T23:31:27.428Z,290.60
2022-12-18T23:33:57.066Z,312.50
2022-12-18T23:36:24.801Z,299.10
2022-12-18T23:38:53.899Z,286.50
2022-12-18T23:41:22.825Z,285.30
2022-12-18T23:43:49.511Z,266.60
2022-12-18T23:46:21.764Z,270.60
2022-12-18T23:48:49.295Z,293.60
2022-12-18T23:51:18.122Z,292.50
2022-12-18T23:53:44.987Z,273.20
2022-12-18T23:56:13.010Z,260.30
2022-12-18T23:58:39.803Z,247.50
